Sunol, Nebraska
Current Conditions -  °F | °C
As of 6:53 AM on Friday 31 Oct 2014 (Local Time) from KSNY Reporting Station
Haze Haze  
Wind Chill: 20°   Ceiling: 500
Heat Index: 29°   Visibility: 6mi
Dew Point: 28°   Wind: 9mph
Humidity: 96%   Direction: 140°SE
Pressure: 30.42"   Gusts: NA
Location:  41.2256°N, 102.681°W
Report Text: KSNY 311253Z AUTO 14008KT 6SM BR OVC005 M02/M02 A3042 RMK AO2 SLP317 T10171022
Loading
Personal Weather Stations






























Interactive Weather Map
Tropical Storm Tracking
New forecast layout! Learn more

10-Day Weather Forecast

Advertisements
Track Severe Weather on mobile